createdAt,value
2019-01-08T00:01:13.614Z,101272.84
2019-01-08T00:05:18.731Z,101283.53
2019-01-08T00:09:24.090Z,101284.31
2019-01-08T00:13:29.199Z,101280.77
2019-01-08T00:17:34.363Z,101291.29
2019-01-08T00:21:39.493Z,101265.13
2019-01-08T00:25:44.672Z,101277.03
2019-01-08T00:29:49.845Z,101297.66
2019-01-08T00:33:54.918Z,101287.87
2019-01-08T00:38:00.079Z,101287.87
2019-01-08T00:42:05.204Z,101281.44
2019-01-08T00:46:10.330Z,101285.86
2019-01-08T00:50:15.509Z,101285.84
2019-01-08T00:54:20.678Z,101294.74
2019-01-08T00:58:25.848Z,101262.34
2019-01-08T01:02:30.925Z,101263.09
2019-01-08T01:06:36.077Z,101272.65
2019-01-08T01:10:41.175Z,101281.09
2019-01-08T01:14:46.341Z,101283.44
2019-01-08T01:18:51.505Z,101286.02
2019-01-08T01:27:41.638Z,101278.54
2019-01-08T01:31:46.784Z,101266.91
2019-01-08T01:35:51.831Z,101268.52
2019-01-08T01:39:56.959Z,101270.22
2019-01-08T01:44:02.026Z,101279.52
2019-01-08T01:48:07.198Z,101255.39
2019-01-08T01:52:12.311Z,101273.47
2019-01-08T01:56:17.357Z,101265.16
2019-01-08T02:00:22.524Z,101267.98
2019-01-08T02:04:27.603Z,101268.08
2019-01-08T02:08:34.801Z,101271.00
2019-01-08T02:12:39.660Z,101269.22
2019-01-08T02:16:44.762Z,101254.02
2019-01-08T02:20:50.139Z,101264.28
2019-01-08T02:24:55.144Z,101258.47
2019-01-08T02:29:00.190Z,101255.10
2019-01-08T02:33:05.293Z,101268.84
2019-01-08T02:37:10.283Z,101266.48
2019-01-08T02:41:15.425Z,101261.78
2019-01-08T02:45:20.462Z,101260.23
2019-01-08T02:49:26.232Z,101261.38
2019-01-08T02:53:31.214Z,101256.60
2019-01-08T02:57:36.354Z,101253.52
2019-01-08T03:01:41.455Z,101241.67
2019-01-08T03:05:46.753Z,101245.11
2019-01-08T03:09:51.854Z,101239.06
2019-01-08T03:13:57.007Z,101254.44
2019-01-08T03:18:02.181Z,101245.83
2019-01-08T03:22:07.357Z,101241.64
2019-01-08T03:26:12.506Z,101228.90
2019-01-08T03:30:17.603Z,101229.20
2019-01-08T03:34:22.792Z,101224.53
2019-01-08T03:38:28.058Z,101202.98
2019-01-08T03:42:33.460Z,101193.66
2019-01-08T03:46:38.664Z,101192.16
2019-01-08T03:50:43.748Z,101203.33
2019-01-08T03:54:48.893Z,101190.23
2019-01-08T03:58:54.051Z,101193.16
2019-01-08T04:02:59.176Z,101185.00
2019-01-08T04:07:04.218Z,101181.48
2019-01-08T04:11:09.688Z,101171.41
2019-01-08T04:15:14.784Z,101162.05
2019-01-08T04:19:19.915Z,101165.31
2019-01-08T04:23:25.059Z,101166.48
2019-01-08T04:27:30.148Z,101157.70
2019-01-08T04:31:35.252Z,101153.94
2019-01-08T04:35:40.295Z,101143.11
2019-01-08T04:39:45.498Z,101131.23
2019-01-08T04:43:50.720Z,101131.84
2019-01-08T04:47:55.872Z,101144.42
2019-01-08T04:52:00.965Z,101124.09
2019-01-08T04:56:05.995Z,101120.66
2019-01-08T05:00:11.122Z,101105.45
2019-01-08T05:04:16.095Z,101102.13
2019-01-08T05:08:21.396Z,101110.98
2019-01-08T05:12:26.442Z,101093.05
2019-01-08T05:16:31.547Z,101094.88
2019-01-08T05:20:36.679Z,101098.56
2019-01-08T05:24:41.757Z,101089.24
2019-01-08T05:28:46.904Z,101075.05
2019-01-08T05:32:55.181Z,101069.26
2019-01-08T05:37:00.120Z,101068.44
2019-01-08T05:41:05.250Z,101066.14
2019-01-08T05:45:10.501Z,101061.21
2019-01-08T05:49:15.597Z,101046.25
2019-01-08T05:53:20.699Z,101051.14
2019-01-08T05:57:26.448Z,101049.53
2019-01-08T06:01:33.821Z,101055.06
2019-01-08T06:10:20.205Z,101046.25
2019-01-08T06:14:54.409Z,101046.36
2019-01-08T06:19:06.479Z,101044.56
2019-01-08T06:28:40.644Z,101025.27
2019-01-08T06:33:07.951Z,101035.23
2019-01-08T06:37:22.048Z,101019.25
2019-01-08T06:41:34.884Z,101012.28
2019-01-08T06:45:44.793Z,101018.22
2019-01-08T06:50:12.327Z,101018.72
2019-01-08T06:54:19.907Z,101014.80
2019-01-08T06:58:28.192Z,101008.55
2019-01-08T07:02:38.312Z,101020.37
2019-01-08T07:07:11.484Z,101030.30
2019-01-08T07:11:21.557Z,101017.67
2019-01-08T07:15:29.873Z,101016.45
2019-01-08T07:19:34.941Z,101021.50
2019-01-08T07:23:40.008Z,100999.08
2019-01-08T07:27:45.018Z,101004.83
2019-01-08T07:31:51.185Z,101009.95
2019-01-08T07:35:56.342Z,101008.35
2019-01-08T07:40:01.808Z,101026.94
2019-01-08T07:44:07.770Z,101007.46
2019-01-08T07:48:13.752Z,101007.46
2019-01-08T07:52:18.799Z,101010.91
2019-01-08T07:56:23.808Z,101008.37
2019-01-08T08:00:28.753Z,101012.24
2019-01-08T08:04:33.964Z,101004.22
2019-01-08T08:08:38.962Z,101005.88
2019-01-08T08:12:44.091Z,101000.57
2019-01-08T08:16:49.064Z,101010.59
2019-01-08T08:20:53.996Z,100990.52
2019-01-08T08:25:00.428Z,100997.91
2019-01-08T08:29:06.456Z,100998.81
2019-01-08T08:33:11.798Z,100989.20
2019-01-08T08:37:17.160Z,100994.48
2019-01-08T08:41:22.489Z,100991.13
2019-01-08T08:45:27.530Z,100995.56
2019-01-08T08:49:32.969Z,100989.23
2019-01-08T08:53:37.915Z,100986.16
2019-01-08T08:57:43.223Z,100993.05
2019-01-08T09:01:48.325Z,100994.41
2019-01-08T09:05:53.705Z,100983.31
2019-01-08T09:09:58.908Z,100989.98
2019-01-08T09:14:04.222Z,100989.98
2019-01-08T09:18:09.638Z,100996.73
2019-01-08T09:22:14.778Z,100992.41
2019-01-08T09:26:20.114Z,100992.70
2019-01-08T09:30:25.428Z,100997.83
2019-01-08T09:34:30.544Z,100993.23
2019-01-08T09:38:35.602Z,100994.41
2019-01-08T09:42:42.782Z,100987.59
2019-01-08T09:46:47.692Z,100987.59
2019-01-08T09:50:53.010Z,100976.05
2019-01-08T09:54:58.115Z,100980.41
2019-01-08T09:59:03.267Z,100955.16
2019-01-08T10:03:08.752Z,100975.22
2019-01-08T10:07:14.193Z,100993.16
2019-01-08T10:11:19.320Z,100991.90
2019-01-08T10:15:24.321Z,100984.84
2019-01-08T10:19:29.898Z,101002.61
2019-01-08T10:23:34.952Z,100981.31
2019-01-08T10:27:39.986Z,100976.30
2019-01-08T10:31:45.079Z,100977.20
2019-01-08T10:35:50.555Z,100970.09
2019-01-08T10:39:55.502Z,100970.09
2019-01-08T10:44:00.649Z,100974.64
2019-01-08T10:48:05.697Z,100951.34
2019-01-08T10:52:10.750Z,100957.95
2019-01-08T10:56:15.789Z,100950.09
2019-01-08T11:00:20.822Z,100946.50
2019-01-08T11:04:25.878Z,100950.77
2019-01-08T11:08:30.841Z,100928.78
2019-01-08T11:12:35.967Z,100933.36
2019-01-08T11:16:41.139Z,100932.66
2019-01-08T11:20:46.193Z,100908.66
2019-01-08T11:24:51.263Z,100963.38
2019-01-08T11:28:56.334Z,100936.58
2019-01-08T11:33:01.416Z,100946.00
2019-01-08T11:37:06.797Z,100941.92
2019-01-08T11:41:11.776Z,100949.88
2019-01-08T11:45:16.882Z,100928.77
2019-01-08T11:49:22.003Z,100932.95
2019-01-08T11:53:27.077Z,100955.48
2019-01-08T11:57:32.282Z,100936.23
2019-01-08T12:01:37.297Z,100914.84
2019-01-08T12:05:42.393Z,100929.64
2019-01-08T12:09:47.530Z,100912.45
2019-01-08T12:13:52.597Z,100926.57
2019-01-08T12:17:57.746Z,100921.22
2019-01-08T12:22:02.812Z,100906.09
2019-01-08T12:26:07.923Z,100912.92
2019-01-08T12:30:13.036Z,100908.73
2019-01-08T12:34:18.093Z,100916.66
2019-01-08T12:38:23.426Z,100915.98
2019-01-08T12:42:28.489Z,100910.48
2019-01-08T12:46:33.600Z,100911.69
2019-01-08T12:50:39.004Z,100905.45
2019-01-08T12:54:44.111Z,100919.47
2019-01-08T12:58:49.164Z,100891.25
2019-01-08T13:02:54.570Z,100891.25
2019-01-08T13:07:01.428Z,100898.07
2019-01-08T13:11:06.377Z,100909.52
2019-01-08T13:15:11.414Z,100909.28
2019-01-08T13:19:16.649Z,100889.23
2019-01-08T13:23:21.832Z,100900.67
2019-01-08T13:27:26.824Z,100890.39
2019-01-08T13:31:31.854Z,100885.59
2019-01-08T13:35:36.971Z,100895.33
2019-01-08T13:39:42.063Z,100909.94
2019-01-08T13:43:47.223Z,100909.81
2019-01-08T13:47:52.320Z,100909.81
2019-01-08T13:51:57.432Z,100925.52
2019-01-08T13:56:02.839Z,100925.52
2019-01-08T14:00:08.292Z,100937.11
2019-01-08T14:04:13.480Z,100929.05
2019-01-08T14:08:18.608Z,100880.88
2019-01-08T14:12:23.610Z,100931.68
2019-01-08T14:16:28.686Z,100937.51
2019-01-08T14:20:33.744Z,100939.10
2019-01-08T14:24:38.742Z,100943.59
2019-01-08T14:28:43.828Z,100958.43
2019-01-08T14:32:49.023Z,100943.80
2019-01-08T14:36:54.112Z,100951.66
2019-01-08T14:40:59.944Z,100946.88
2019-01-08T14:45:05.214Z,100948.59
2019-01-08T14:49:10.378Z,100948.59
2019-01-08T14:53:15.742Z,100948.99
2019-01-08T14:57:20.872Z,100946.03
2019-01-08T15:01:26.359Z,100940.73
2019-01-08T15:05:31.537Z,100956.13
2019-01-08T15:09:36.689Z,100978.77
2019-01-08T15:13:41.759Z,100978.70
2019-01-08T15:17:47.063Z,100987.02
2019-01-08T15:21:52.232Z,100982.22
2019-01-08T15:25:57.864Z,100991.50
2019-01-08T15:30:02.986Z,100991.05
2019-01-08T15:34:08.173Z,100989.47
2019-01-08T15:38:13.281Z,100998.01
2019-01-08T15:42:18.303Z,101016.13
2019-01-08T15:46:23.430Z,101000.00
2019-01-08T15:50:28.638Z,100996.19
2019-01-08T15:54:33.800Z,100987.11
2019-01-08T15:58:38.898Z,101011.09
2019-01-08T16:02:45.257Z,101011.09
2019-01-08T16:06:50.800Z,101002.72
2019-01-08T16:10:56.031Z,101015.09
2019-01-08T16:15:01.068Z,101019.46
2019-01-08T16:19:06.196Z,101024.20
2019-01-08T16:23:11.300Z,101023.92
2019-01-08T16:27:16.397Z,101004.73
2019-01-08T16:31:21.732Z,101020.56
2019-01-08T16:35:26.832Z,101019.59
2019-01-08T16:39:32.038Z,101021.22
2019-01-08T16:43:37.140Z,101027.89
2019-01-08T16:47:42.643Z,101024.30
2019-01-08T16:51:47.815Z,101008.76
2019-01-08T16:55:53.002Z,101022.48
2019-01-08T16:59:58.089Z,100997.37
2019-01-08T17:04:03.251Z,101020.45
2019-01-08T17:08:08.648Z,101022.09
2019-01-08T17:12:14.122Z,101006.54
2019-01-08T17:16:19.318Z,101033.53
2019-01-08T17:20:24.411Z,101014.92
2019-01-08T17:24:30.583Z,101008.45
2019-01-08T17:28:35.717Z,101021.88
2019-01-08T17:32:41.180Z,101018.85
2019-01-08T17:36:46.192Z,101036.61
2019-01-08T17:40:51.287Z,101049.48
2019-01-08T17:44:56.795Z,101028.19
2019-01-08T17:49:19.935Z,101030.29
2019-01-08T17:53:25.113Z,101024.94
2019-01-08T17:57:30.308Z,101026.42
2019-01-08T18:01:38.303Z,101025.16
2019-01-08T18:05:43.387Z,101036.50
2019-01-08T18:09:49.526Z,101032.73
2019-01-08T18:13:54.714Z,101024.98
2019-01-08T18:18:01.284Z,101036.38
2019-01-08T18:22:06.460Z,101019.19
2019-01-08T18:26:11.798Z,101030.64
2019-01-08T18:30:17.163Z,101029.49
2019-01-08T18:34:22.319Z,101035.23
2019-01-08T18:38:27.506Z,101044.00
2019-01-08T18:42:32.741Z,101056.88
2019-01-08T18:46:37.966Z,101057.28
2019-01-08T18:50:43.408Z,101048.46
2019-01-08T18:54:48.545Z,101044.41
2019-01-08T18:58:53.644Z,101055.23
2019-01-08T19:02:58.664Z,101041.33
2019-01-08T19:07:03.771Z,101037.98
2019-01-08T19:11:09.014Z,101034.03
2019-01-08T19:15:14.433Z,101036.33
2019-01-08T19:19:19.642Z,101036.70
2019-01-08T19:23:24.828Z,101028.42
2019-01-08T19:27:29.879Z,101042.84
2019-01-08T19:31:35.004Z,101042.78
2019-01-08T19:35:40.514Z,101047.42
2019-01-08T19:39:45.761Z,101049.19
2019-01-08T19:43:50.887Z,101051.37
2019-01-08T19:47:56.062Z,101055.13
2019-01-08T19:52:01.210Z,101066.90
2019-01-08T19:56:09.638Z,101076.16
2019-01-08T20:00:14.841Z,101051.47
2019-01-08T20:04:20.082Z,101054.09
2019-01-08T20:08:25.286Z,101054.09
2019-01-08T20:12:30.464Z,101040.57
2019-01-08T20:16:36.053Z,101034.78
2019-01-08T20:20:41.198Z,101043.35
2019-01-08T20:24:46.345Z,101042.69
2019-01-08T20:28:55.677Z,101042.23
2019-01-08T20:33:00.721Z,101064.17
2019-01-08T20:37:06.717Z,101042.59
2019-01-08T20:41:13.862Z,101038.02
2019-01-08T20:45:18.714Z,101034.30
2019-01-08T20:49:23.892Z,101035.16
2019-01-08T20:53:29.094Z,101024.98
2019-01-08T20:57:34.404Z,101033.34
2019-01-08T21:01:39.584Z,101043.14
2019-01-08T21:05:44.797Z,101043.30
2019-01-08T21:09:50.248Z,101033.03
2019-01-08T21:13:55.680Z,101021.41
2019-01-08T21:18:00.843Z,101030.12
2019-01-08T21:22:06.024Z,101050.34
2019-01-08T21:26:11.170Z,101054.80
2019-01-08T21:30:16.334Z,101063.83
2019-01-08T21:34:22.427Z,101065.83
2019-01-08T21:38:28.268Z,101068.25
2019-01-08T21:42:33.660Z,101048.95
2019-01-08T21:46:38.980Z,101049.27
2019-01-08T21:50:44.086Z,101037.56
2019-01-08T21:54:51.748Z,101048.88
2019-01-08T21:58:57.165Z,101038.56
2019-01-08T22:03:02.273Z,101037.25
2019-01-08T22:07:09.956Z,101043.91
2019-01-08T22:11:15.331Z,101043.05
2019-01-08T22:15:20.619Z,101042.34
2019-01-08T22:19:25.799Z,101047.72
2019-01-08T22:23:30.967Z,101046.41
2019-01-08T22:27:36.076Z,101053.05
2019-01-08T22:31:41.161Z,101041.89
2019-01-08T22:35:46.254Z,101047.80
2019-01-08T22:39:52.410Z,101045.20
2019-01-08T22:43:57.493Z,101039.76
2019-01-08T22:48:02.685Z,101032.46
2019-01-08T22:52:07.763Z,101013.87
2019-01-08T22:56:12.940Z,101019.66
2019-01-08T23:00:54.065Z,101019.66
2019-01-08T23:05:00.502Z,101023.67
2019-01-08T23:09:07.884Z,101028.04
2019-01-08T23:13:13.064Z,101037.59
2019-01-08T23:17:18.127Z,101016.64
2019-01-08T23:21:23.234Z,101020.70
2019-01-08T23:25:28.354Z,101014.26
2019-01-08T23:29:33.457Z,101010.34
2019-01-08T23:33:38.577Z,101002.99
2019-01-08T23:37:43.751Z,101009.87
2019-01-08T23:41:49.177Z,101014.98
2019-01-08T23:45:54.331Z,100995.66
2019-01-08T23:49:59.903Z,100989.39
2019-01-08T23:54:05.036Z,101010.53
2019-01-08T23:58:12.769Z,101002.29
